Time;durP1;ratioP1;P1;durP2;ratioP2;P2;SDS_P1;SDS_P2;PMS_P1;PMS_P2;Temp;Humidity;BMP_temperature;BMP_pressure;BME280_temperature;BME280_humidity;BME280_pressure;Samples;Min_cycle;Max_cycle;Signal;HPM_P1;HPM_P2
2023/11/22 00:00:09;;;;;;;0.60;0.60;;;2.20;99.90;;;;;;5049629;28;19932;-80
2023/11/22 00:02:36;;;;;;;0.60;0.60;;;2.20;99.90;;;;;;5029892;28;20049;-80
2023/11/22 00:05:03;;;;;;;;;;;2.10;99.90;;;;;;5025271;28;20087;-81
2023/11/22 00:07:29;;;;;;;0.60;0.60;;;2.30;99.90;;;;;;5024346;28;19920;-81
2023/11/22 00:09:55;;;;;;;0.70;0.70;;;2.10;99.90;;;;;;4998523;28;20098;-81
2023/11/22 00:12:21;;;;;;;1.10;1.10;;;2.10;99.90;;;;;;5037881;28;20489;-79
2023/11/22 00:14:47;;;;;;;0.70;0.70;;;2.10;99.90;;;;;;5027004;28;20603;-81
2023/11/22 00:17:13;;;;;;;1.23;1.08;;;2.10;99.90;;;;;;5022404;28;20340;-81
2023/11/22 00:19:40;;;;;;;0.60;0.60;;;2.10;99.90;;;;;;5014817;28;20037;-80
2023/11/22 00:22:13;;;;;;;0.85;0.85;;;2.10;99.90;;;;;;5027438;28;20068;-80
2023/11/22 00:24:42;;;;;;;0.52;0.52;;;2.20;99.90;;;;;;5039637;28;20041;-80
2023/11/22 00:27:08;;;;;;;0.82;0.82;;;2.20;99.90;;;;;;5042486;28;20057;-80
2023/11/22 00:29:34;;;;;;;0.70;0.70;;;2.30;99.90;;;;;;5040378;28;20469;-79
2023/11/22 00:32:00;;;;;;;0.70;0.70;;;2.20;99.90;;;;;;5028865;28;20045;-79
2023/11/22 00:34:26;;;;;;;0.57;0.57;;;2.20;99.90;;;;;;5034109;28;21303;-81
2023/11/22 00:36:52;;;;;;;0.50;0.50;;;2.40;99.90;;;;;;5042299;28;20041;-79
2023/11/22 00:39:18;;;;;;;;;;;2.20;99.90;;;;;;5041741;28;20562;-78
2023/11/22 00:41:44;;;;;;;0.60;0.60;;;2.20;99.90;;;;;;5041921;28;19971;-81
2023/11/22 00:44:10;;;;;;;0.60;0.60;;;2.20;99.90;;;;;;5014681;28;20092;-80
2023/11/22 00:46:39;;;;;;;0.65;0.65;;;2.20;99.90;;;;;;5035995;28;20041;-77
2023/11/22 00:49:05;;;;;;;0.70;0.70;;;2.30;99.90;;;;;;5043269;28;20129;-79
2023/11/22 00:51:32;;;;;;;0.70;0.70;;;2.30;99.90;;;;;;5021316;28;20041;-79
2023/11/22 00:54:01;;;;;;;0.60;0.60;;;2.20;99.90;;;;;;5051756;28;20101;-79
2023/11/22 00:56:26;;;;;;;0.98;0.98;;;2.20;99.90;;;;;;5040933;28;20045;-79
2023/11/22 00:58:53;;;;;;;0.82;0.82;;;2.10;99.90;;;;;;5036400;28;20056;-81
2023/11/22 01:01:22;;;;;;;0.60;0.60;;;2.00;99.90;;;;;;5041339;28;20128;-80
2023/11/22 01:03:47;;;;;;;0.50;0.50;;;2.00;99.90;;;;;;5042132;28;20063;-81
2023/11/22 01:06:13;;;;;;;0.60;0.60;;;2.00;99.90;;;;;;5021757;28;20041;-80
2023/11/22 01:08:39;;;;;;;0.60;0.60;;;1.90;99.90;;;;;;5019656;28;20095;-80
2023/11/22 01:11:08;;;;;;;0.70;0.70;;;1.80;99.90;;;;;;5029480;28;20050;-79
2023/11/22 01:13:40;;;;;;;0.60;0.60;;;1.70;99.90;;;;;;5025899;28;20390;-79
2023/11/22 01:16:07;;;;;;;0.70;0.70;;;1.70;99.90;;;;;;5038959;28;20045;-79
2023/11/22 01:18:33;;;;;;;0.70;0.70;;;1.70;99.90;;;;;;5039584;28;20120;-79
2023/11/22 01:20:58;;;;;;;0.60;0.60;;;1.80;99.90;;;;;;5026612;28;20119;-79
2023/11/22 01:23:24;;;;;;;5.60;2.53;;;1.80;99.90;;;;;;5040264;28;20179;-79
2023/11/22 01:25:50;;;;;;;0.60;0.60;;;1.70;99.90;;;;;;5030525;28;20155;-79
2023/11/22 01:28:17;;;;;;;0.73;0.73;;;1.60;99.90;;;;;;5020489;28;20052;-79
2023/11/22 01:30:45;;;;;;;0.60;0.60;;;1.50;99.90;;;;;;5041925;28;20405;-79
2023/11/22 01:33:11;;;;;;;0.60;0.60;;;1.40;99.90;;;;;;5039812;28;20041;-79
2023/11/22 01:35:38;;;;;;;;;;;1.30;99.90;;;;;;5043890;28;20053;-80
2023/11/22 01:38:07;;;;;;;0.63;0.63;;;1.20;99.90;;;;;;5040819;28;20251;-79
2023/11/22 01:40:34;;;;;;;0.55;0.55;;;1.10;99.90;;;;;;5039386;28;20102;-80
2023/11/22 01:43:00;;;;;;;0.80;0.80;;;1.10;99.90;;;;;;5043127;28;20040;-79
2023/11/22 01:45:26;;;;;;;1.27;1.27;;;1.00;99.90;;;;;;5024633;28;20052;-80
2023/11/22 01:47:52;;;;;;;0.60;0.60;;;0.90;99.90;;;;;;5041989;28;20044;-79
2023/11/22 01:50:18;;;;;;;;;;;0.90;99.90;;;;;;5045917;28;20087;-80
2023/11/22 01:52:45;;;;;;;0.77;0.77;;;0.90;99.90;;;;;;5038695;28;19921;-80
2023/11/22 01:55:13;;;;;;;0.60;0.60;;;0.90;99.90;;;;;;5041375;28;20087;-80
2023/11/22 01:57:39;;;;;;;0.70;0.70;;;0.90;99.90;;;;;;5040271;28;20094;-80
2023/11/22 02:00:07;;;;;;;;;;;0.90;99.90;;;;;;5026194;28;20048;-80
2023/11/22 02:02:36;;;;;;;0.70;0.70;;;0.90;99.90;;;;;;5042262;28;19979;-80
2023/11/22 02:05:03;;;;;;;0.70;0.70;;;0.90;99.90;;;;;;5039756;28;20045;-80
2023/11/22 02:07:29;;;;;;;0.65;0.65;;;1.00;99.90;;;;;;5037674;28;20041;-80
2023/11/22 02:10:02;;;;;;;0.70;0.70;;;0.90;99.90;;;;;;5020951;28;20075;-80
2023/11/22 02:12:28;;;;;;;0.73;0.73;;;0.90;99.90;;;;;;5034878;28;20116;-81
2023/11/22 02:14:54;;;;;;;0.65;0.65;;;0.90;99.90;;;;;;5012461;28;21079;-81
2023/11/22 02:17:21;;;;;;;0.60;0.60;;;0.80;99.90;;;;;;5040809;28;20132;-78
2023/11/22 02:19:48;;;;;;;1.13;1.13;;;0.80;99.90;;;;;;5022339;28;20049;-78
2023/11/22 02:22:13;;;;;;;0.50;0.50;;;0.70;99.90;;;;;;5040418;28;20120;-80
2023/11/22 02:24:40;;;;;;;0.70;0.70;;;1.00;99.90;;;;;;5037843;28;20461;-80
2023/11/22 02:27:06;;;;;;;;;;;0.60;99.90;;;;;;5042823;28;20049;-79
2023/11/22 02:29:31;;;;;;;0.60;0.60;;;1.30;99.90;;;;;;5041126;28;19925;-78
2023/11/22 02:31:57;;;;;;;1.10;1.10;;;0.60;99.90;;;;;;5041370;28;20500;-80
2023/11/22 02:34:23;;;;;;;0.63;0.63;;;1.30;99.90;;;;;;5040184;28;20465;-79
2023/11/22 02:36:49;;;;;;;0.75;0.75;;;0.50;99.90;;;;;;5039977;28;21119;-79
2023/11/22 02:39:16;;;;;;;0.63;0.63;;;0.50;99.90;;;;;;5027581;28;20076;-79
2023/11/22 02:41:42;;;;;;;0.80;0.80;;;0.50;99.90;;;;;;5035572;28;20410;-81
2023/11/22 02:44:08;;;;;;;;;;;0.50;99.90;;;;;;5028933;28;20178;-79
2023/11/22 02:46:33;;;;;;;0.70;0.70;;;0.40;99.90;;;;;;5045013;28;19920;-81
2023/11/22 02:48:59;;;;;;;0.70;0.70;;;0.40;99.90;;;;;;5045341;28;20045;-82
2023/11/22 02:51:25;;;;;;;;;;;0.30;99.90;;;;;;5049237;28;20037;-81
2023/11/22 02:53:51;;;;;;;0.70;0.70;;;0.30;99.90;;;;;;5026233;28;19925;-80
2023/11/22 02:56:17;;;;;;;0.60;0.60;;;0.20;99.90;;;;;;5038968;28;20037;-79
2023/11/22 02:58:43;;;;;;;0.60;0.60;;;0.10;99.90;;;;;;5048981;28;20371;-80
2023/11/22 03:01:08;;;;;;;0.70;0.70;;;0.10;99.90;;;;;;5044816;28;20473;-79
2023/11/22 03:03:35;;;;;;;0.70;0.70;;;0.00;99.90;;;;;;5043694;28;20045;-79
2023/11/22 03:06:02;;;;;;;0.60;0.60;;;0.00;99.90;;;;;;5033502;28;20425;-80
2023/11/22 03:08:28;;;;;;;0.70;0.70;;;0.00;99.90;;;;;;5045392;28;20053;-78
2023/11/22 03:10:54;;;;;;;0.70;0.70;;;0.10;99.90;;;;;;5027558;28;20048;-79
2023/11/22 03:13:19;;;;;;;0.80;0.80;;;0.10;99.90;;;;;;5045261;28;20434;-80
2023/11/22 03:15:45;;;;;;;0.80;0.80;;;0.20;99.90;;;;;;5032079;28;20140;-79
2023/11/22 03:18:11;;;;;;;0.80;0.80;;;0.20;99.90;;;;;;5018669;28;20151;-80
2023/11/22 03:20:38;;;;;;;0.75;0.75;;;0.20;99.90;;;;;;5045089;28;20096;-79
2023/11/22 03:23:04;;;;;;;0.68;0.68;;;0.20;99.90;;;;;;5028895;28;20483;-79
2023/11/22 03:25:30;;;;;;;0.70;0.70;;;0.40;99.90;;;;;;5045555;28;20401;-79
2023/11/22 03:27:56;;;;;;;;;;;0.10;99.90;;;;;;5045831;28;20130;-80
2023/11/22 03:30:22;;;;;;;1.35;1.35;;;0.00;99.90;;;;;;5043661;28;20015;-80
2023/11/22 03:32:49;;;;;;;0.70;0.70;;;0.20;99.90;;;;;;5032172;28;20056;-81
2023/11/22 03:35:16;;;;;;;0.68;0.68;;;0.00;99.90;;;;;;5022299;28;20045;-80
2023/11/22 03:37:42;;;;;;;0.70;0.70;;;0.80;99.90;;;;;;5012959;28;20061;-81
2023/11/22 03:40:09;;;;;;;0.75;0.75;;;0.70;99.90;;;;;;5044158;28;20471;-80
2023/11/22 03:42:37;;;;;;;0.70;0.70;;;0.20;99.90;;;;;;5014397;28;20399;-79
2023/11/22 03:45:04;;;;;;;0.55;0.55;;;0.20;99.90;;;;;;5039643;28;20100;-80
2023/11/22 03:47:29;;;;;;;0.60;0.60;;;0.10;99.90;;;;;;5037264;28;20119;-80
2023/11/22 03:49:55;;;;;;;0.70;0.70;;;0.00;99.90;;;;;;5023298;28;20470;-79
2023/11/22 03:52:21;;;;;;;0.60;0.60;;;0.00;99.90;;;;;;5040711;28;20095;-80
2023/11/22 03:54:46;;;;;;;0.80;0.80;;;-0.10;99.90;;;;;;5044461;28;20490;-80
2023/11/22 03:57:12;;;;;;;0.60;0.60;;;-0.10;99.90;;;;;;5034399;28;20132;-83
2023/11/22 03:59:41;;;;;;;0.70;0.70;;;0.10;99.90;;;;;;5047852;28;20104;-81
2023/11/22 04:02:08;;;;;;;0.77;0.77;;;-0.20;99.90;;;;;;5041561;28;20048;-81
2023/11/22 04:04:34;;;;;;;0.75;0.75;;;-0.20;99.90;;;;;;5046311;28;20055;-80
2023/11/22 04:07:00;;;;;;;0.75;0.75;;;0.10;99.90;;;;;;5041259;28;20090;-80
2023/11/22 04:09:26;;;;;;;0.70;0.70;;;-0.30;99.90;;;;;;5043769;28;20057;-80
2023/11/22 04:11:51;;;;;;;0.63;0.63;;;-0.30;99.90;;;;;;5027117;28;20464;-80
2023/11/22 04:14:20;;;;;;;0.80;0.80;;;-0.40;99.90;;;;;;5027625;28;20052;-80
2023/11/22 04:16:46;;;;;;;0.60;0.60;;;-0.50;99.90;;;;;;5020164;28;20068;-80
2023/11/22 04:19:11;;;;;;;0.70;0.70;;;-0.50;99.90;;;;;;5029470;28;20036;-80
2023/11/22 04:21:37;;;;;;;0.70;0.70;;;-0.50;99.90;;;;;;5040085;28;20077;-80
2023/11/22 04:24:03;;;;;;;0.70;0.70;;;-0.60;99.90;;;;;;5036614;28;20308;-79
2023/11/22 04:26:29;;;;;;;0.70;0.70;;;-0.60;99.90;;;;;;5030946;28;20091;-80
2023/11/22 04:28:54;;;;;;;0.80;0.80;;;-0.60;99.90;;;;;;5053535;28;20071;-80
2023/11/22 04:31:20;;;;;;;0.80;0.80;;;-0.70;99.90;;;;;;5042547;28;20041;-80
2023/11/22 04:33:47;;;;;;;0.70;0.70;;;-0.70;99.90;;;;;;5018913;28;20224;-81
2023/11/22 04:36:13;;;;;;;0.90;0.90;;;-0.70;99.90;;;;;;5042707;28;20042;-80
2023/11/22 04:38:38;;;;;;;0.82;0.82;;;-0.70;99.90;;;;;;5023833;28;20060;-79
2023/11/22 04:41:04;;;;;;;0.80;0.80;;;-0.70;99.90;;;;;;5027483;28;20414;-80
2023/11/22 04:43:31;;;;;;;0.75;0.75;;;-0.70;99.90;;;;;;5039726;28;20045;-79
2023/11/22 04:45:57;;;;;;;0.70;0.70;;;-0.70;99.90;;;;;;5038689;28;20037;-80
2023/11/22 04:48:23;;;;;;;0.70;0.70;;;-0.80;99.90;;;;;;5022802;28;20510;-79
2023/11/22 04:50:49;;;;;;;0.70;0.70;;;-0.80;99.90;;;;;;5013371;28;21329;-80
2023/11/22 04:53:14;;;;;;;0.82;0.82;;;-0.70;99.90;;;;;;5017833;28;20136;-80
2023/11/22 04:55:40;;;;;;;0.90;0.90;;;0.20;99.90;;;;;;5022187;28;20071;-86
2023/11/22 04:58:06;;;;;;;0.70;0.70;;;-0.70;99.90;;;;;;5043765;28;20076;-79
2023/11/22 05:00:35;;;;;;;0.75;0.75;;;-0.70;99.90;;;;;;5040000;28;20422;-79
2023/11/22 05:03:02;;;;;;;;;;;-0.70;99.90;;;;;;5044444;28;20049;-80
2023/11/22 05:05:28;;;;;;;0.70;0.70;;;-0.70;99.90;;;;;;5027156;28;19974;-80
2023/11/22 05:07:54;;;;;;;0.80;0.80;;;-0.70;99.90;;;;;;5019383;28;20076;-80
2023/11/22 05:10:21;;;;;;;0.70;0.70;;;-0.70;99.90;;;;;;5033660;28;20124;-82
2023/11/22 05:12:47;;;;;;;0.60;0.60;;;0.10;99.90;;;;;;5024757;28;20032;-82
2023/11/22 05:15:14;;;;;;;0.70;0.70;;;-0.60;99.90;;;;;;5025783;28;20038;-81
2023/11/22 05:17:40;;;;;;;0.70;0.70;;;-0.60;99.90;;;;;;5044071;28;20056;-82
2023/11/22 05:20:09;;;;;;;0.60;0.60;;;-0.60;99.90;;;;;;5046155;28;20037;-82
2023/11/22 05:22:36;;;;;;;0.75;0.75;;;-0.50;99.90;;;;;;5035153;28;20124;-81
2023/11/22 05:25:06;;;;;;;0.80;0.80;;;-0.50;99.90;;;;;;4992518;28;20136;-81
2023/11/22 05:27:32;;;;;;;0.65;0.65;;;-0.40;99.90;;;;;;5038610;28;20043;-81
2023/11/22 05:29:58;;;;;;;0.80;0.80;;;-0.40;99.90;;;;;;5003856;28;20040;-81
2023/11/22 05:32:26;;;;;;;0.70;0.70;;;-0.40;99.90;;;;;;5035408;28;20050;-81
2023/11/22 05:34:51;;;;;;;0.80;0.80;;;-0.40;99.90;;;;;;5036490;28;20509;-81
2023/11/22 05:37:18;;;;;;;0.90;0.90;;;-0.40;99.90;;;;;;5015977;28;20041;-82
2023/11/22 05:39:45;;;;;;;0.80;0.80;;;-0.20;99.90;;;;;;5035051;28;20568;-81
2023/11/22 05:42:14;;;;;;;0.63;0.63;;;-0.40;99.90;;;;;;5035207;28;20120;-81
2023/11/22 05:44:39;;;;;;;0.70;0.70;;;-0.30;99.90;;;;;;5035175;28;20465;-82
2023/11/22 05:47:07;;;;;;;0.80;0.80;;;-0.20;99.90;;;;;;5040582;28;20396;-82
2023/11/22 05:49:33;;;;;;;0.70;0.70;;;-0.20;99.90;;;;;;5022640;28;20049;-82
2023/11/22 05:52:04;;;;;;;0.70;0.70;;;1.10;99.90;;;;;;5037424;28;20079;-83
2023/11/22 05:54:31;;;;;;;0.70;0.70;;;-0.10;99.90;;;;;;5009737;28;20049;-82
2023/11/22 05:56:57;;;;;;;0.73;0.73;;;-0.10;99.90;;;;;;5019379;28;20040;-81
2023/11/22 05:59:24;;;;;;;0.80;0.80;;;-0.10;99.90;;;;;;5021357;28;20158;-81
2023/11/22 06:01:50;;;;;;;0.70;0.70;;;0.00;99.90;;;;;;5038495;28;20037;-82
2023/11/22 06:04:16;;;;;;;0.70;0.70;;;0.00;99.90;;;;;;5017548;28;20053;-81
2023/11/22 06:06:42;;;;;;;0.70;0.70;;;0.00;99.90;;;;;;5039082;28;20144;-82
2023/11/22 06:09:10;;;;;;;0.73;0.73;;;0.00;99.90;;;;;;5017940;28;20136;-82
2023/11/22 06:11:37;;;;;;;0.60;0.60;;;0.00;99.90;;;;;;5018167;28;20045;-81
2023/11/22 06:14:02;;;;;;;0.63;0.63;;;0.00;99.90;;;;;;5045216;28;20048;-81
2023/11/22 06:16:28;;;;;;;0.75;0.75;;;0.00;99.90;;;;;;5019440;28;20061;-82
2023/11/22 06:18:54;;;;;;;0.73;0.73;;;0.00;99.90;;;;;;5021327;28;20045;-82
2023/11/22 06:21:19;;;;;;;0.63;0.63;;;0.00;99.90;;;;;;5020896;28;20041;-82
2023/11/22 06:23:45;;;;;;;0.60;0.60;;;0.30;99.90;;;;;;5035870;28;20116;-82
2023/11/22 06:26:11;;;;;;;;;;;0.00;99.90;;;;;;5019107;28;20059;-82
2023/11/22 06:28:37;;;;;;;0.73;0.73;;;0.10;99.90;;;;;;5011727;28;19921;-82
2023/11/22 06:31:03;;;;;;;;;;;0.10;99.90;;;;;;5035865;28;20094;-82
2023/11/22 06:33:29;;;;;;;0.60;0.60;;;0.10;99.90;;;;;;5037269;28;20309;-81
2023/11/22 06:35:54;;;;;;;0.70;0.70;;;0.10;99.90;;;;;;5034238;28;20103;-81
2023/11/22 06:38:20;;;;;;;0.63;0.63;;;0.10;99.90;;;;;;5020457;28;20040;-82
2023/11/22 06:40:46;;;;;;;0.70;0.70;;;0.20;99.90;;;;;;5015950;28;20060;-81
2023/11/22 06:43:11;;;;;;;0.73;0.73;;;0.10;99.90;;;;;;5022996;28;20051;-81
2023/11/22 06:45:37;;;;;;;0.70;0.70;;;0.10;99.90;;;;;;5017024;28;20045;-80
2023/11/22 06:48:03;;;;;;;0.68;0.68;;;0.30;99.90;;;;;;5038229;28;20100;-81
2023/11/22 06:50:28;;;;;;;0.65;0.65;;;0.10;99.90;;;;;;5000312;28;20455;-82
2023/11/22 06:52:54;;;;;;;1.50;1.40;;;0.60;99.90;;;;;;5031006;28;20081;-82
2023/11/22 06:55:20;;;;;;;0.80;0.80;;;0.50;99.90;;;;;;5020648;28;20036;-81
2023/11/22 06:57:45;;;;;;;0.70;0.70;;;0.20;99.90;;;;;;5016269;28;20034;-80
2023/11/22 07:00:12;;;;;;;0.80;0.80;;;0.30;99.90;;;;;;5037978;28;20052;-81
2023/11/22 07:02:38;;;;;;;0.70;0.70;;;0.30;99.90;;;;;;5040893;28;20044;-80
2023/11/22 07:05:08;;;;;;;0.80;0.80;;;1.60;99.90;;;;;;5019488;28;20407;-84
2023/11/22 07:07:35;;;;;;;0.73;0.73;;;0.30;99.90;;;;;;5044928;28;20045;-82
2023/11/22 07:10:01;;;;;;;0.70;0.70;;;0.30;99.90;;;;;;5038702;28;20040;-83
2023/11/22 07:12:27;;;;;;;1.00;1.00;;;0.30;99.90;;;;;;5021960;28;20041;-83
2023/11/22 07:14:53;;;;;;;0.60;0.60;;;0.30;99.90;;;;;;5029553;28;20045;-83
2023/11/22 07:17:19;;;;;;;0.70;0.70;;;1.30;99.90;;;;;;5029657;28;20131;-82
2023/11/22 07:19:48;;;;;;;0.60;0.60;;;1.10;99.90;;;;;;5032092;28;20167;-82
2023/11/22 07:22:16;;;;;;;0.70;0.70;;;0.60;99.90;;;;;;5045184;28;20666;-83
2023/11/22 07:24:43;;;;;;;0.60;0.60;;;1.60;99.90;;;;;;5017552;28;20053;-82
2023/11/22 07:27:12;;;;;;;0.70;0.70;;;0.70;99.90;;;;;;5039477;28;20441;-81
2023/11/22 07:29:41;;;;;;;1.00;1.00;;;0.70;99.90;;;;;;5045212;28;20047;-83
2023/11/22 07:32:08;;;;;;;0.70;0.70;;;0.80;99.90;;;;;;5041077;28;20546;-82
2023/11/22 07:34:34;;;;;;;0.63;0.63;;;1.70;99.90;;;;;;5047258;28;20071;-83
2023/11/22 07:37:00;;;;;;;0.75;0.75;;;0.90;99.90;;;;;;5029557;28;20045;-82
2023/11/22 07:39:29;;;;;;;0.80;0.80;;;2.00;99.90;;;;;;5029975;28;20445;-82
2023/11/22 07:41:56;;;;;;;1.70;1.45;;;1.00;99.90;;;;;;5027092;28;20038;-81
2023/11/22 07:44:25;;;;;;;0.60;0.60;;;1.10;99.90;;;;;;5048605;28;20104;-82
2023/11/22 07:46:54;;;;;;;1.02;1.02;;;2.10;99.90;;;;;;5037449;28;20499;-82
2023/11/22 07:49:23;;;;;;;0.90;0.90;;;1.10;99.90;;;;;;5017929;28;20102;-81
2023/11/22 07:51:51;;;;;;;0.70;0.70;;;1.10;99.90;;;;;;5039435;28;20482;-81
2023/11/22 07:54:22;;;;;;;0.80;0.80;;;1.20;99.90;;;;;;5043204;28;20068;-81
2023/11/22 07:56:48;;;;;;;0.65;0.65;;;2.50;99.90;;;;;;5025564;28;20090;-82
2023/11/22 07:59:14;;;;;;;0.90;0.90;;;1.30;99.90;;;;;;5043048;28;20064;-83
2023/11/22 08:01:43;;;;;;;3.53;1.48;;;1.30;99.90;;;;;;5049060;28;20034;-82
2023/11/22 08:04:09;;;;;;;1.35;1.33;;;1.40;99.90;;;;;;5041964;28;20052;-82
2023/11/22 08:06:35;;;;;;;1.55;1.30;;;1.50;99.90;;;;;;5034125;28;20041;-82
2023/11/22 08:09:01;;;;;;;0.90;0.90;;;1.70;99.90;;;;;;5033660;28;20041;-82
2023/11/22 08:11:28;;;;;;;0.80;0.80;;;1.60;99.90;;;;;;5016343;28;20061;-82
2023/11/22 08:13:59;;;;;;;0.73;0.73;;;1.80;99.90;;;;;;5027508;28;20099;-82
2023/11/22 08:16:28;;;;;;;1.80;1.70;;;1.70;99.90;;;;;;5007676;28;20210;-82
2023/11/22 08:18:54;;;;;;;2.78;2.58;;;1.70;99.90;;;;;;5045889;28;20045;-84
2023/11/22 08:21:20;;;;;;;1.80;1.70;;;2.50;99.90;;;;;;5037069;28;20117;-83
2023/11/22 08:23:49;;;;;;;0.70;0.70;;;1.70;99.90;;;;;;5051978;28;20041;-83
2023/11/22 08:26:15;;;;;;;0.60;0.60;;;1.70;99.90;;;;;;5043008;28;20033;-83
2023/11/22 08:28:41;;;;;;;0.60;0.60;;;1.80;99.90;;;;;;5046658;28;20083;-83
2023/11/22 08:31:10;;;;;;;0.60;0.60;;;1.80;99.90;;;;;;5052697;28;20090;-84
2023/11/22 08:33:39;;;;;;;0.60;0.60;;;1.80;99.90;;;;;;5012691;28;20041;-82
2023/11/22 08:36:07;;;;;;;2.95;2.05;;;1.90;99.90;;;;;;5029316;28;20973;-82
2023/11/22 08:38:34;;;;;;;0.70;0.70;;;1.90;99.90;;;;;;5024960;28;20029;-82
2023/11/22 08:41:07;;;;;;;0.60;0.60;;;3.20;99.90;;;;;;5027511;28;20738;-82
2023/11/22 08:43:33;;;;;;;1.70;1.60;;;1.90;99.90;;;;;;5039639;28;20510;-81
2023/11/22 08:46:06;;;;;;;0.85;0.85;;;2.00;99.90;;;;;;5025349;28;20041;-82
2023/11/22 08:48:33;;;;;;;1.45;1.35;;;2.00;99.90;;;;;;5019319;28;20510;-83
2023/11/22 08:50:58;;;;;;;0.82;0.82;;;2.70;99.90;;;;;;5050576;28;20072;-83
2023/11/22 08:53:25;;;;;;;1.98;0.93;;;3.30;99.90;;;;;;5037478;28;20045;-83
2023/11/22 08:55:51;;;;;;;2.92;1.23;;;2.10;99.90;;;;;;5043207;28;20053;-82
2023/11/22 08:58:17;;;;;;;2.78;1.80;;;2.20;99.90;;;;;;5050705;28;20050;-83
2023/11/22 09:00:44;;;;;;;0.55;0.55;;;2.20;99.90;;;;;;5042644;28;20045;-82
2023/11/22 09:03:12;;;;;;;0.93;0.93;;;2.20;99.90;;;;;;5028608;28;20045;-82
2023/11/22 09:05:39;;;;;;;0.50;0.50;;;2.30;99.90;;;;;;5017127;28;20051;-82
2023/11/22 09:08:05;;;;;;;0.70;0.70;;;2.50;99.90;;;;;;5046571;28;20037;-82
2023/11/22 09:10:31;;;;;;;2.70;2.22;;;2.40;99.90;;;;;;5034158;28;20534;-83
2023/11/22 09:12:59;;;;;;;1.35;1.35;;;2.40;99.90;;;;;;5035983;28;20123;-82
2023/11/22 09:15:26;;;;;;;2.75;2.65;;;3.10;99.90;;;;;;5041831;28;20125;-83
2023/11/22 09:17:53;;;;;;;0.70;0.70;;;2.40;99.90;;;;;;5024029;28;20061;-82
2023/11/22 09:20:20;;;;;;;0.50;0.50;;;2.50;99.90;;;;;;5014614;28;20123;-82
2023/11/22 09:22:51;;;;;;;0.60;0.60;;;2.50;99.90;;;;;;5022899;28;20086;-82
2023/11/22 09:25:21;;;;;;;0.70;0.70;;;2.50;99.90;;;;;;5044204;28;20063;-83
2023/11/22 09:27:49;;;;;;;0.70;0.70;;;2.60;99.90;;;;;;5040135;28;20041;-82
2023/11/22 09:30:32;;;;;;;0.90;0.90;;;2.60;99.90;;;;;;5025608;28;20044;-82
2023/11/22 09:33:09;;;;;;;0.75;0.75;;;2.70;99.90;;;;;;5036047;28;20450;-82
2023/11/22 09:35:35;;;;;;;0.80;0.80;;;4.10;99.90;;;;;;5033632;28;20038;-83
2023/11/22 09:38:03;;;;;;;1.52;0.95;;;2.80;99.90;;;;;;5020795;28;20128;-81
2023/11/22 09:40:31;;;;;;;0.50;0.50;;;2.90;99.90;;;;;;5024557;28;20463;-82
2023/11/22 09:43:02;;;;;;;0.93;0.93;;;2.90;99.90;;;;;;5046627;28;20383;-83
2023/11/22 09:45:29;;;;;;;0.77;0.77;;;3.00;99.90;;;;;;5024095;28;20041;-82
2023/11/22 09:47:55;;;;;;;0.60;0.60;;;3.10;99.90;;;;;;5044113;28;20052;-83
2023/11/22 09:50:47;;;;;;;0.57;0.57;;;3.10;99.90;;;;;;5022582;28;20573;-82
2023/11/22 09:53:40;;;;;;;0.88;0.88;;;3.20;99.90;;;;;;5028120;28;20183;-83
2023/11/22 09:56:07;;;;;;;2.05;1.88;;;3.30;99.90;;;;;;5039348;28;20044;-83
2023/11/22 09:58:34;;;;;;;0.60;0.60;;;3.30;99.90;;;;;;5040950;28;20030;-83
2023/11/22 10:01:01;;;;;;;1.42;1.33;;;3.90;99.90;;;;;;5014311;28;20501;-82
2023/11/22 10:03:30;;;;;;;0.60;0.60;;;3.40;99.90;;;;;;5042738;28;20136;-82
2023/11/22 10:05:58;;;;;;;0.63;0.63;;;3.40;99.90;;;;;;5021812;28;20048;-82
2023/11/22 10:08:29;;;;;;;1.15;1.15;;;3.50;99.90;;;;;;5026796;28;20079;-81
2023/11/22 10:10:55;;;;;;;0.90;0.90;;;3.50;99.90;;;;;;5043398;28;20052;-82
2023/11/22 10:13:22;;;;;;;1.42;1.33;;;3.50;99.90;;;;;;5037499;28;20041;-81
2023/11/22 10:15:49;;;;;;;0.57;0.57;;;3.60;99.90;;;;;;5042928;28;20049;-80
2023/11/22 10:18:17;;;;;;;0.60;0.60;;;3.60;99.90;;;;;;5036598;28;20493;-80
2023/11/22 10:20:46;;;;;;;0.60;0.60;;;3.70;99.90;;;;;;5021757;28;20048;-80
2023/11/22 10:23:14;;;;;;;1.17;1.13;;;3.70;99.90;;;;;;5039069;28;20134;-80
2023/11/22 10:25:51;;;;;;;0.60;0.60;;;4.80;99.90;;;;;;5041790;28;20072;-81
2023/11/22 10:28:18;;;;;;;0.77;0.77;;;3.90;99.90;;;;;;5035926;28;20116;-81
2023/11/22 10:30:46;;;;;;;4.13;3.85;;;4.00;99.90;;;;;;5011802;28;20045;-80
2023/11/22 10:33:13;;;;;;;2.80;2.55;;;4.00;99.90;;;;;;5028949;28;20835;-81
2023/11/22 10:35:49;;;;;;;1.13;1.13;;;4.10;99.90;;;;;;5042007;28;20040;-81
2023/11/22 10:38:18;;;;;;;0.90;0.90;;;4.20;99.90;;;;;;5045124;28;20487;-82
2023/11/22 10:40:45;;;;;;;1.10;1.10;;;4.20;99.90;;;;;;5029105;28;20335;-82
2023/11/22 10:43:16;;;;;;;1.40;1.30;;;4.30;99.90;;;;;;5029269;28;20504;-80
2023/11/22 10:45:49;;;;;;;1.02;1.02;;;4.30;99.90;;;;;;5043817;28;20045;-80
2023/11/22 10:48:19;;;;;;;2.25;1.90;;;4.40;99.90;;;;;;5017844;28;20080;-80
2023/11/22 10:50:46;;;;;;;1.52;1.48;;;4.30;99.90;;;;;;5032390;28;20306;-80
2023/11/22 10:53:15;;;;;;;0.65;0.65;;;4.30;99.90;;;;;;5030292;28;20057;-81
2023/11/22 10:55:47;;;;;;;0.60;0.60;;;4.30;99.90;;;;;;5041840;28;20052;-79
2023/11/22 10:58:15;;;;;;;0.93;0.93;;;4.30;99.90;;;;;;5042479;28;20033;-79
2023/11/22 11:00:41;;;;;;;0.77;0.77;;;4.30;99.90;;;;;;5029876;28;20032;-80
2023/11/22 11:03:21;;;;;;;1.38;1.27;;;4.40;99.90;;;;;;5044719;28;20045;-82
2023/11/22 11:06:15;;;;;;;0.85;0.85;;;4.70;99.90;;;;;;5044126;28;20068;-81
2023/11/22 11:08:44;;;;;;;1.00;1.00;;;4.60;99.90;;;;;;5007720;28;20037;-79
2023/11/22 11:11:10;;;;;;;0.55;0.55;;;4.70;99.90;;;;;;5029295;28;20045;-80
2023/11/22 11:13:35;;;;;;;1.30;1.23;;;4.90;99.90;;;;;;5026772;28;20045;-80
2023/11/22 11:16:02;;;;;;;0.60;0.60;;;5.00;99.90;;;;;;5022935;28;20044;-82
2023/11/22 11:18:28;;;;;;;1.58;1.48;;;5.10;99.90;;;;;;5044126;28;20128;-80
2023/11/22 11:20:59;;;;;;;0.90;0.90;;;5.20;99.90;;;;;;5045000;28;20541;-80
2023/11/22 11:23:27;;;;;;;1.13;1.13;;;5.40;99.90;;;;;;5044454;28;20040;-80
2023/11/22 11:25:57;;;;;;;0.60;0.60;;;5.70;99.90;;;;;;5038149;28;20049;-79
2023/11/22 11:28:27;;;;;;;4.68;1.42;;;5.60;99.90;;;;;;5044056;28;20045;-80
2023/11/22 11:30:56;;;;;;;1.02;0.90;;;5.70;99.90;;;;;;5023911;28;20045;-80
2023/11/22 11:33:35;;;;;;;0.88;0.88;;;5.80;99.90;;;;;;5027534;28;20138;-80
2023/11/22 11:36:04;;;;;;;1.08;1.08;;;5.80;99.90;;;;;;5043151;28;20369;-80
2023/11/22 11:38:34;;;;;;;0.60;0.60;;;5.80;99.90;;;;;;5028009;28;20049;-80
2023/11/22 11:41:10;;;;;;;0.40;0.40;;;5.70;99.90;;;;;;5040795;28;20045;-81
2023/11/22 11:43:41;;;;;;;;;;;5.70;99.90;;;;;;5021773;28;20087;-80
2023/11/22 11:46:16;;;;;;;0.40;0.40;;;5.70;99.90;;;;;;5027983;28;20051;-80
2023/11/22 11:48:48;;;;;;;1.58;1.50;;;5.70;99.90;;;;;;5025501;28;20044;-81
2023/11/22 11:51:15;;;;;;;1.95;1.85;;;5.70;99.90;;;;;;5025648;28;20061;-80
2023/11/22 11:53:41;;;;;;;0.80;0.80;;;5.70;99.90;;;;;;5041575;28;20384;-80
2023/11/22 11:56:07;;;;;;;;;;;5.80;99.90;;;;;;5032209;28;20046;-80
2023/11/22 11:58:34;;;;;;;0.90;0.90;;;5.60;99.90;;;;;;5043167;28;20056;-80
2023/11/22 12:01:00;;;;;;;0.50;0.50;;;5.60;99.90;;;;;;5040852;28;20064;-81
2023/11/22 12:03:25;;;;;;;0.57;0.57;;;5.60;99.90;;;;;;5041984;28;20502;-81
2023/11/22 12:05:51;;;;;;;0.88;0.88;;;5.50;99.90;;;;;;5038651;28;20053;-81
2023/11/22 12:08:18;;;;;;;0.52;0.52;;;5.30;99.90;;;;;;5039167;28;20069;-79
2023/11/22 12:10:48;;;;;;;0.57;0.57;;;5.40;99.90;;;;;;5050268;28;20046;-81
2023/11/22 12:13:20;;;;;;;0.60;0.60;;;5.30;99.90;;;;;;5044305;28;20072;-81
2023/11/22 12:15:55;;;;;;;0.70;0.70;;;5.30;99.90;;;;;;5037935;28;20049;-80
2023/11/22 12:18:22;;;;;;;0.55;0.55;;;5.30;99.90;;;;;;5022555;28;20474;-80
2023/11/22 12:20:58;;;;;;;1.08;1.05;;;5.20;99.90;;;;;;5039521;28;20049;-80
2023/11/22 12:23:27;;;;;;;0.80;0.80;;;5.30;99.90;;;;;;5038654;28;20049;-79
2023/11/22 12:26:02;;;;;;;2.20;1.48;;;5.20;99.90;;;;;;5029297;28;20311;-80
2023/11/22 12:28:28;;;;;;;4.00;1.40;;;5.10;99.90;;;;;;5051643;28;20436;-80
2023/11/22 12:30:54;;;;;;;0.98;0.98;;;5.20;99.90;;;;;;5049488;28;20052;-79
2023/11/22 12:33:21;;;;;;;0.60;0.60;;;5.20;99.90;;;;;;5048992;28;20073;-78
2023/11/22 12:35:48;;;;;;;0.70;0.70;;;5.10;99.90;;;;;;5025080;28;20041;-80
2023/11/22 12:38:15;;;;;;;0.40;0.40;;;5.10;99.90;;;;;;5037320;28;20052;-81
2023/11/22 12:40:46;;;;;;;1.02;1.02;;;5.00;99.90;;;;;;5038959;28;20415;-80
2023/11/22 12:43:16;;;;;;;0.65;0.65;;;5.30;99.90;;;;;;5025856;28;20048;-81
2023/11/22 12:45:45;;;;;;;0.55;0.55;;;5.00;99.90;;;;;;5026254;28;20040;-81
2023/11/22 12:48:24;;;;;;;0.52;0.52;;;5.00;99.90;;;;;;5039467;28;20041;-81
2023/11/22 12:50:52;;;;;;;0.80;0.80;;;5.70;99.90;;;;;;5018980;28;20049;-81
2023/11/22 12:53:21;;;;;;;2.65;1.30;;;5.40;99.90;;;;;;5025050;28;20045;-81
2023/11/22 12:55:51;;;;;;;0.60;0.60;;;5.20;99.90;;;;;;5044333;28;20048;-81
2023/11/22 12:58:21;;;;;;;1.20;1.20;;;5.40;99.90;;;;;;5043282;28;20033;-81
2023/11/22 13:00:49;;;;;;;1.17;1.17;;;5.50;99.90;;;;;;5023902;28;20124;-80